sensor_id;sensor_type;location;lat;lon;timestamp;temperature;humidity
21149;DHT22;10732;51.472;6.466;2023-04-03T00:01:12;-0.10;99.90
21149;DHT22;10732;51.472;6.466;2023-04-03T00:03:38;-0.10;99.90
21149;DHT22;10732;51.472;6.466;2023-04-03T00:06:04;-0.10;99.90
21149;DHT22;10732;51.472;6.466;2023-04-03T00:08:32;-0.20;99.90
21149;DHT22;10732;51.472;6.466;2023-04-03T00:10:58;-0.20;99.90
21149;DHT22;10732;51.472;6.466;2023-04-03T00:13:24;-0.20;99.90
21149;DHT22;10732;51.472;6.466;2023-04-03T00:15:50;-0.20;99.90
21149;DHT22;10732;51.472;6.466;2023-04-03T00:18:16;-0.30;99.90
21149;DHT22;10732;51.472;6.466;2023-04-03T00:20:42;-0.30;99.90
21149;DHT22;10732;51.472;6.466;2023-04-03T00:23:07;-0.30;99.90
21149;DHT22;10732;51.472;6.466;2023-04-03T00:25:33;-0.30;99.90
21149;DHT22;10732;51.472;6.466;2023-04-03T00:27:58;-0.30;99.90
21149;DHT22;10732;51.472;6.466;2023-04-03T00:30:24;-0.40;99.90
21149;DHT22;10732;51.472;6.466;2023-04-03T00:32:51;-0.40;99.90
21149;DHT22;10732;51.472;6.466;2023-04-03T00:35:18;-0.30;99.90
21149;DHT22;10732;51.472;6.466;2023-04-03T00:37:45;-0.40;99.90
21149;DHT22;10732;51.472;6.466;2023-04-03T00:40:13;-0.40;99.90
21149;DHT22;10732;51.472;6.466;2023-04-03T00:42:44;-0.40;99.90
21149;DHT22;10732;51.472;6.466;2023-04-03T00:47:37;-0.40;99.90
21149;DHT22;10732;51.472;6.466;2023-04-03T00:50:04;-0.50;99.90
21149;DHT22;10732;51.472;6.466;2023-04-03T00:52:30;-0.40;99.90
21149;DHT22;10732;51.472;6.466;2023-04-03T00:55:02;-0.50;99.90
21149;DHT22;10732;51.472;6.466;2023-04-03T00:57:30;-0.40;99.90
21149;DHT22;10732;51.472;6.466;2023-04-03T01:00:00;-0.50;99.90
21149;DHT22;10732;51.472;6.466;2023-04-03T01:02:27;-0.60;99.90
21149;DHT22;10732;51.472;6.466;2023-04-03T01:04:53;-0.50;99.90
21149;DHT22;10732;51.472;6.466;2023-04-03T01:07:24;-0.50;99.90
21149;DHT22;10732;51.472;6.466;2023-04-03T01:09:56;-0.50;99.90
21149;DHT22;10732;51.472;6.466;2023-04-03T01:12:24;-0.60;99.90
21149;DHT22;10732;51.472;6.466;2023-04-03T01:14:55;-0.60;99.90
21149;DHT22;10732;51.472;6.466;2023-04-03T01:17:37;-0.60;99.90
21149;DHT22;10732;51.472;6.466;2023-04-03T01:25:36;-0.60;99.90
21149;DHT22;10732;51.472;6.466;2023-04-03T01:28:04;-0.60;99.90
21149;DHT22;10732;51.472;6.466;2023-04-03T01:30:35;-0.60;99.90
21149;DHT22;10732;51.472;6.466;2023-04-03T01:33:03;-0.60;99.90
21149;DHT22;10732;51.472;6.466;2023-04-03T01:35:28;-0.50;99.90
21149;DHT22;10732;51.472;6.466;2023-04-03T01:37:54;-0.40;99.90
21149;DHT22;10732;51.472;6.466;2023-04-03T01:40:19;-0.40;99.90
21149;DHT22;10732;51.472;6.466;2023-04-03T01:42:45;-0.30;99.90
21149;DHT22;10732;51.472;6.466;2023-04-03T01:45:11;-0.20;99.90
21149;DHT22;10732;51.472;6.466;2023-04-03T01:47:36;-0.20;99.90
21149;DHT22;10732;51.472;6.466;2023-04-03T01:50:02;-0.10;99.90
21149;DHT22;10732;51.472;6.466;2023-04-03T01:52:28;0.00;99.90
21149;DHT22;10732;51.472;6.466;2023-04-03T01:54:55;0.10;99.90
21149;DHT22;10732;51.472;6.466;2023-04-03T01:57:21;0.10;99.90
21149;DHT22;10732;51.472;6.466;2023-04-03T01:59:46;0.10;99.90
21149;DHT22;10732;51.472;6.466;2023-04-03T02:02:12;0.10;99.90
21149;DHT22;10732;51.472;6.466;2023-04-03T02:04:38;0.10;99.90
21149;DHT22;10732;51.472;6.466;2023-04-03T02:07:03;0.20;99.90
21149;DHT22;10732;51.472;6.466;2023-04-03T02:09:29;0.40;99.90
21149;DHT22;10732;51.472;6.466;2023-04-03T02:11:55;0.40;99.90
21149;DHT22;10732;51.472;6.466;2023-04-03T02:14:20;0.50;99.90
21149;DHT22;10732;51.472;6.466;2023-04-03T02:16:47;0.60;99.90
21149;DHT22;10732;51.472;6.466;2023-04-03T02:19:12;0.70;99.90
21149;DHT22;10732;51.472;6.466;2023-04-03T02:21:38;0.80;99.90
21149;DHT22;10732;51.472;6.466;2023-04-03T02:24:04;0.90;99.90
21149;DHT22;10732;51.472;6.466;2023-04-03T02:26:30;0.90;99.90
21149;DHT22;10732;51.472;6.466;2023-04-03T02:28:56;1.00;99.90
21149;DHT22;10732;51.472;6.466;2023-04-03T02:31:22;1.00;99.90
21149;DHT22;10732;51.472;6.466;2023-04-03T02:33:47;1.00;99.90
21149;DHT22;10732;51.472;6.466;2023-04-03T02:36:13;1.10;99.90
21149;DHT22;10732;51.472;6.466;2023-04-03T02:38:39;1.00;99.90
21149;DHT22;10732;51.472;6.466;2023-04-03T02:41:06;1.00;99.90
21149;DHT22;10732;51.472;6.466;2023-04-03T02:43:32;1.00;99.90
21149;DHT22;10732;51.472;6.466;2023-04-03T02:45:58;1.10;99.90
21149;DHT22;10732;51.472;6.466;2023-04-03T02:48:24;1.00;99.90
21149;DHT22;10732;51.472;6.466;2023-04-03T02:50:50;1.00;99.90
21149;DHT22;10732;51.472;6.466;2023-04-03T02:53:15;1.00;99.90
21149;DHT22;10732;51.472;6.466;2023-04-03T02:55:41;1.00;99.90
21149;DHT22;10732;51.472;6.466;2023-04-03T02:58:07;0.90;99.90
21149;DHT22;10732;51.472;6.466;2023-04-03T03:00:32;1.00;99.90
21149;DHT22;10732;51.472;6.466;2023-04-03T03:02:58;1.00;99.90
21149;DHT22;10732;51.472;6.466;2023-04-03T03:05:24;0.90;99.90
21149;DHT22;10732;51.472;6.466;2023-04-03T03:07:49;0.90;99.90
21149;DHT22;10732;51.472;6.466;2023-04-03T03:10:15;0.80;99.90
21149;DHT22;10732;51.472;6.466;2023-04-03T03:12:41;0.90;99.90
21149;DHT22;10732;51.472;6.466;2023-04-03T03:15:07;0.90;99.90
21149;DHT22;10732;51.472;6.466;2023-04-03T03:17:32;0.90;99.90
21149;DHT22;10732;51.472;6.466;2023-04-03T03:19:58;0.90;99.90
21149;DHT22;10732;51.472;6.466;2023-04-03T03:22:24;0.90;99.90
21149;DHT22;10732;51.472;6.466;2023-04-03T03:24:49;0.90;99.90
21149;DHT22;10732;51.472;6.466;2023-04-03T03:27:15;1.00;99.90
21149;DHT22;10732;51.472;6.466;2023-04-03T03:29:41;1.00;99.90
21149;DHT22;10732;51.472;6.466;2023-04-03T03:32:07;1.00;99.90
21149;DHT22;10732;51.472;6.466;2023-04-03T03:34:33;1.00;99.90
21149;DHT22;10732;51.472;6.466;2023-04-03T03:36:58;0.90;99.90
21149;DHT22;10732;51.472;6.466;2023-04-03T03:39:24;1.00;99.90
21149;DHT22;10732;51.472;6.466;2023-04-03T03:41:50;1.00;99.90
21149;DHT22;10732;51.472;6.466;2023-04-03T03:44:15;1.00;99.90
21149;DHT22;10732;51.472;6.466;2023-04-03T03:46:41;0.90;99.90
21149;DHT22;10732;51.472;6.466;2023-04-03T03:49:06;0.90;99.90
21149;DHT22;10732;51.472;6.466;2023-04-03T03:51:32;0.90;99.90
21149;DHT22;10732;51.472;6.466;2023-04-03T03:53:57;0.90;99.90
21149;DHT22;10732;51.472;6.466;2023-04-03T03:56:23;1.00;99.90
21149;DHT22;10732;51.472;6.466;2023-04-03T03:58:49;1.10;99.90
21149;DHT22;10732;51.472;6.466;2023-04-03T04:01:15;1.10;99.90
21149;DHT22;10732;51.472;6.466;2023-04-03T04:03:40;1.10;99.90
21149;DHT22;10732;51.472;6.466;2023-04-03T04:06:06;1.10;99.90
21149;DHT22;10732;51.472;6.466;2023-04-03T04:08:32;1.10;99.90
21149;DHT22;10732;51.472;6.466;2023-04-03T04:10:57;1.00;99.90
21149;DHT22;10732;51.472;6.466;2023-04-03T04:13:23;1.00;99.90
21149;DHT22;10732;51.472;6.466;2023-04-03T04:15:49;0.90;99.90
21149;DHT22;10732;51.472;6.466;2023-04-03T04:18:14;0.90;99.90
21149;DHT22;10732;51.472;6.466;2023-04-03T04:20:40;0.80;99.90
21149;DHT22;10732;51.472;6.466;2023-04-03T04:23:05;0.80;99.90
21149;DHT22;10732;51.472;6.466;2023-04-03T04:25:31;0.80;99.90
21149;DHT22;10732;51.472;6.466;2023-04-03T04:27:58;0.80;99.90
21149;DHT22;10732;51.472;6.466;2023-04-03T04:30:23;0.80;99.90
21149;DHT22;10732;51.472;6.466;2023-04-03T04:32:49;0.80;99.90
21149;DHT22;10732;51.472;6.466;2023-04-03T04:35:14;0.70;99.90
21149;DHT22;10732;51.472;6.466;2023-04-03T04:37:40;0.70;99.90
21149;DHT22;10732;51.472;6.466;2023-04-03T04:40:06;0.70;99.90
21149;DHT22;10732;51.472;6.466;2023-04-03T04:42:32;0.70;99.90
21149;DHT22;10732;51.472;6.466;2023-04-03T04:44:58;0.60;99.90
21149;DHT22;10732;51.472;6.466;2023-04-03T04:47:23;0.70;99.90
21149;DHT22;10732;51.472;6.466;2023-04-03T04:49:49;0.70;99.90
21149;DHT22;10732;51.472;6.466;2023-04-03T04:52:14;0.60;99.90
21149;DHT22;10732;51.472;6.466;2023-04-03T04:54:40;0.70;99.90
21149;DHT22;10732;51.472;6.466;2023-04-03T04:57:06;0.70;99.90
21149;DHT22;10732;51.472;6.466;2023-04-03T04:59:32;0.70;99.90
21149;DHT22;10732;51.472;6.466;2023-04-03T05:01:58;0.60;99.90
21149;DHT22;10732;51.472;6.466;2023-04-03T05:04:23;0.70;99.90
21149;DHT22;10732;51.472;6.466;2023-04-03T05:06:49;0.70;99.90
21149;DHT22;10732;51.472;6.466;2023-04-03T05:09:14;0.70;99.90
21149;DHT22;10732;51.472;6.466;2023-04-03T05:11:40;0.70;99.90
21149;DHT22;10732;51.472;6.466;2023-04-03T05:14:06;0.70;99.90
21149;DHT22;10732;51.472;6.466;2023-04-03T05:16:32;0.80;99.90
21149;DHT22;10732;51.472;6.466;2023-04-03T05:18:58;1.00;99.90
21149;DHT22;10732;51.472;6.466;2023-04-03T05:21:23;1.30;99.90
21149;DHT22;10732;51.472;6.466;2023-04-03T05:23:51;1.60;99.90
21149;DHT22;10732;51.472;6.466;2023-04-03T05:26:17;2.00;99.90
21149;DHT22;10732;51.472;6.466;2023-04-03T05:28:42;2.50;99.90
21149;DHT22;10732;51.472;6.466;2023-04-03T05:31:08;2.90;99.90
21149;DHT22;10732;51.472;6.466;2023-04-03T05:33:34;3.10;99.90
21149;DHT22;10732;51.472;6.466;2023-04-03T05:36:04;3.20;99.90
21149;DHT22;10732;51.472;6.466;2023-04-03T05:38:30;3.50;99.90
21149;DHT22;10732;51.472;6.466;2023-04-03T05:40:55;3.90;99.90
21149;DHT22;10732;51.472;6.466;2023-04-03T05:43:21;3.90;99.90
21149;DHT22;10732;51.472;6.466;2023-04-03T05:45:47;4.50;99.90
21149;DHT22;10732;51.472;6.466;2023-04-03T05:48:13;5.10;99.90
21149;DHT22;10732;51.472;6.466;2023-04-03T05:50:38;4.90;99.90
21149;DHT22;10732;51.472;6.466;2023-04-03T05:53:07;4.80;99.90
21149;DHT22;10732;51.472;6.466;2023-04-03T05:55:37;4.70;99.90
21149;DHT22;10732;51.472;6.466;2023-04-03T05:58:03;4.90;99.90
21149;DHT22;10732;51.472;6.466;2023-04-03T06:00:28;4.90;99.90
21149;DHT22;10732;51.472;6.466;2023-04-03T06:02:54;4.90;99.90
21149;DHT22;10732;51.472;6.466;2023-04-03T06:05:19;4.30;99.90
21149;DHT22;10732;51.472;6.466;2023-04-03T06:07:45;3.60;99.90
21149;DHT22;10732;51.472;6.466;2023-04-03T06:10:12;3.10;99.90
21149;DHT22;10732;51.472;6.466;2023-04-03T06:12:38;2.80;99.90
21149;DHT22;10732;51.472;6.466;2023-04-03T06:15:04;2.70;99.90
21149;DHT22;10732;51.472;6.466;2023-04-03T06:17:29;2.50;99.90
21149;DHT22;10732;51.472;6.466;2023-04-03T06:19:55;2.40;99.90
21149;DHT22;10732;51.472;6.466;2023-04-03T06:22:23;2.40;99.90
21149;DHT22;10732;51.472;6.466;2023-04-03T06:24:50;2.40;99.90
21149;DHT22;10732;51.472;6.466;2023-04-03T06:27:16;2.40;99.90
21149;DHT22;10732;51.472;6.466;2023-04-03T06:29:42;2.40;99.90
21149;DHT22;10732;51.472;6.466;2023-04-03T06:32:08;2.30;99.90
21149;DHT22;10732;51.472;6.466;2023-04-03T06:34:34;2.40;99.90
21149;DHT22;10732;51.472;6.466;2023-04-03T06:36:59;2.40;99.90
21149;DHT22;10732;51.472;6.466;2023-04-03T06:39:25;2.50;99.90
21149;DHT22;10732;51.472;6.466;2023-04-03T06:41:51;2.70;99.90
21149;DHT22;10732;51.472;6.466;2023-04-03T06:44:17;2.70;99.90
21149;DHT22;10732;51.472;6.466;2023-04-03T06:46:43;3.20;99.90
21149;DHT22;10732;51.472;6.466;2023-04-03T06:49:09;4.30;99.90
21149;DHT22;10732;51.472;6.466;2023-04-03T06:51:36;4.80;99.90
21149;DHT22;10732;51.472;6.466;2023-04-03T06:54:02;6.10;99.90
21149;DHT22;10732;51.472;6.466;2023-04-03T06:56:28;6.40;99.90
21149;DHT22;10732;51.472;6.466;2023-04-03T06:58:54;7.70;99.90
21149;DHT22;10732;51.472;6.466;2023-04-03T07:01:24;7.40;99.90
21149;DHT22;10732;51.472;6.466;2023-04-03T07:03:50;8.50;99.90
21149;DHT22;10732;51.472;6.466;2023-04-03T07:06:17;8.20;99.90
21149;DHT22;10732;51.472;6.466;2023-04-03T07:08:44;8.90;99.90
21149;DHT22;10732;51.472;6.466;2023-04-03T07:11:10;9.20;99.90
21149;DHT22;10732;51.472;6.466;2023-04-03T07:13:37;8.30;99.90
21149;DHT22;10732;51.472;6.466;2023-04-03T07:16:03;9.10;99.90
21149;DHT22;10732;51.472;6.466;2023-04-03T07:18:30;9.10;99.90
21149;DHT22;10732;51.472;6.466;2023-04-03T07:20:56;8.50;99.90
21149;DHT22;10732;51.472;6.466;2023-04-03T07:23:22;8.30;99.90
21149;DHT22;10732;51.472;6.466;2023-04-03T07:25:49;10.20;99.90
21149;DHT22;10732;51.472;6.466;2023-04-03T07:28:17;10.60;99.90
21149;DHT22;10732;51.472;6.466;2023-04-03T07:30:44;9.70;99.90
21149;DHT22;10732;51.472;6.466;2023-04-03T07:33:10;9.50;99.90
21149;DHT22;10732;51.472;6.466;2023-04-03T07:35:37;9.50;99.90
21149;DHT22;10732;51.472;6.466;2023-04-03T07:38:02;9.90;99.90
21149;DHT22;10732;51.472;6.466;2023-04-03T07:40:28;10.20;99.90
21149;DHT22;10732;51.472;6.466;2023-04-03T07:42:53;10.30;99.90
21149;DHT22;10732;51.472;6.466;2023-04-03T07:45:20;10.30;99.90
21149;DHT22;10732;51.472;6.466;2023-04-03T07:47:48;10.30;99.90
21149;DHT22;10732;51.472;6.466;2023-04-03T07:50:13;10.60;99.90
21149;DHT22;10732;51.472;6.466;2023-04-03T07:52:39;10.90;99.90
21149;DHT22;10732;51.472;6.466;2023-04-03T07:55:06;9.80;99.90
21149;DHT22;10732;51.472;6.466;2023-04-03T07:57:31;10.50;99.90
21149;DHT22;10732;51.472;6.466;2023-04-03T07:59:57;10.50;99.90
21149;DHT22;10732;51.472;6.466;2023-04-03T08:02:22;11.40;99.90
21149;DHT22;10732;51.472;6.466;2023-04-03T08:04:48;11.50;99.90
21149;DHT22;10732;51.472;6.466;2023-04-03T08:07:13;11.90;99.90
21149;DHT22;10732;51.472;6.466;2023-04-03T08:09:39;11.70;99.90
21149;DHT22;10732;51.472;6.466;2023-04-03T08:12:05;11.80;99.90
21149;DHT22;10732;51.472;6.466;2023-04-03T08:14:32;11.70;99.90
21149;DHT22;10732;51.472;6.466;2023-04-03T08:17:00;12.30;99.90
21149;DHT22;10732;51.472;6.466;2023-04-03T08:19:26;12.00;99.90
21149;DHT22;10732;51.472;6.466;2023-04-03T08:21:53;11.40;99.90
21149;DHT22;10732;51.472;6.466;2023-04-03T08:24:19;12.00;99.90
21149;DHT22;10732;51.472;6.466;2023-04-03T08:26:44;11.80;99.90
21149;DHT22;10732;51.472;6.466;2023-04-03T08:29:10;11.50;99.90
21149;DHT22;10732;51.472;6.466;2023-04-03T08:31:35;12.60;99.90
21149;DHT22;10732;51.472;6.466;2023-04-03T08:34:01;12.60;99.90
21149;DHT22;10732;51.472;6.466;2023-04-03T08:36:28;11.90;99.90
21149;DHT22;10732;51.472;6.466;2023-04-03T08:38:55;12.50;99.90
21149;DHT22;10732;51.472;6.466;2023-04-03T08:41:36;12.60;99.90
21149;DHT22;10732;51.472;6.466;2023-04-03T08:44:17;14.10;99.90
21149;DHT22;10732;51.472;6.466;2023-04-03T08:49:42;12.90;99.90
21149;DHT22;10732;51.472;6.466;2023-04-03T08:52:15;13.00;99.90
21149;DHT22;10732;51.472;6.466;2023-04-03T08:54:51;12.40;99.90
21149;DHT22;10732;51.472;6.466;2023-04-03T08:57:24;12.50;99.90
21149;DHT22;10732;51.472;6.466;2023-04-03T08:59:51;13.10;99.90
21149;DHT22;10732;51.472;6.466;2023-04-03T09:02:50;13.30;99.90
21149;DHT22;10732;51.472;6.466;2023-04-03T09:05:17;13.30;99.90
21149;DHT22;10732;51.472;6.466;2023-04-03T09:07:47;12.40;99.90
21149;DHT22;10732;51.472;6.466;2023-04-03T09:10:15;13.40;99.90
21149;DHT22;10732;51.472;6.466;2023-04-03T09:12:53;13.80;99.90
21149;DHT22;10732;51.472;6.466;2023-04-03T09:15:22;14.80;99.90
21149;DHT22;10732;51.472;6.466;2023-04-03T09:23:51;14.00;99.90
21149;DHT22;10732;51.472;6.466;2023-04-03T09:26:17;13.50;99.90
21149;DHT22;10732;51.472;6.466;2023-04-03T09:28:44;13.10;99.90
21149;DHT22;10732;51.472;6.466;2023-04-03T09:31:23;13.50;99.90
21149;DHT22;10732;51.472;6.466;2023-04-03T09:33:52;12.90;99.90
21149;DHT22;10732;51.472;6.466;2023-04-03T09:36:37;13.20;99.90
21149;DHT22;10732;51.472;6.466;2023-04-03T09:39:11;13.00;99.90
21149;DHT22;10732;51.472;6.466;2023-04-03T09:41:37;13.00;99.90
21149;DHT22;10732;51.472;6.466;2023-04-03T09:44:04;13.10;99.90
21149;DHT22;10732;51.472;6.466;2023-04-03T09:46:43;13.60;99.90
21149;DHT22;10732;51.472;6.466;2023-04-03T09:49:11;13.80;99.90
21149;DHT22;10732;51.472;6.466;2023-04-03T09:51:37;13.60;99.90
21149;DHT22;10732;51.472;6.466;2023-04-03T09:57:02;12.80;99.90
21149;DHT22;10732;51.472;6.466;2023-04-03T09:59:30;13.10;99.90
21149;DHT22;10732;51.472;6.466;2023-04-03T10:01:59;13.90;99.90
21149;DHT22;10732;51.472;6.466;2023-04-03T10:04:25;13.90;99.90
21149;DHT22;10732;51.472;6.466;2023-04-03T10:07:01;13.40;99.90
21149;DHT22;10732;51.472;6.466;2023-04-03T10:09:29;12.40;99.90
21149;DHT22;10732;51.472;6.466;2023-04-03T10:12:09;12.00;99.90
21149;DHT22;10732;51.472;6.466;2023-04-03T10:14:57;12.50;99.90
21149;DHT22;10732;51.472;6.466;2023-04-03T10:17:50;12.00;99.90
21149;DHT22;10732;51.472;6.466;2023-04-03T10:25:21;12.50;99.90
21149;DHT22;10732;51.472;6.466;2023-04-03T10:33:34;12.90;99.90
21149;DHT22;10732;51.472;6.466;2023-04-03T10:42:33;13.50;99.90
21149;DHT22;10732;51.472;6.466;2023-04-03T10:53:10;12.70;99.90
21149;DHT22;10732;51.472;6.466;2023-04-03T10:58:32;12.70;99.90
21149;DHT22;10732;51.472;6.466;2023-04-03T11:01:06;12.40;99.90
21149;DHT22;10732;51.472;6.466;2023-04-03T11:03:43;12.00;99.90
21149;DHT22;10732;51.472;6.466;2023-04-03T11:06:12;11.70;99.90
21149;DHT22;10732;51.472;6.466;2023-04-03T11:09:00;11.30;99.90
21149;DHT22;10732;51.472;6.466;2023-04-03T11:11:37;12.00;99.90
21149;DHT22;10732;51.472;6.466;2023-04-03T11:14:30;12.40;99.90
21149;DHT22;10732;51.472;6.466;2023-04-03T11:17:01;12.80;99.90
21149;DHT22;10732;51.472;6.466;2023-04-03T11:19:52;12.50;99.90
21149;DHT22;10732;51.472;6.466;2023-04-03T11:22:36;12.40;99.90
21149;DHT22;10732;51.472;6.466;2023-04-03T11:27:47;11.90;99.90
21149;DHT22;10732;51.472;6.466;2023-04-03T11:36:05;12.10;99.90
21149;DHT22;10732;51.472;6.466;2023-04-03T11:38:38;11.90;99.90
21149;DHT22;10732;51.472;6.466;2023-04-03T11:41:07;11.60;99.90
21149;DHT22;10732;51.472;6.466;2023-04-03T11:43:59;10.80;99.90
21149;DHT22;10732;51.472;6.466;2023-04-03T11:46:54;10.60;99.90
21149;DHT22;10732;51.472;6.466;2023-04-03T12:06:41;9.60;99.90
21149;DHT22;10732;51.472;6.466;2023-04-03T12:08:46;9.60;99.90
21149;DHT22;10732;51.472;6.466;2023-04-03T12:19:34;9.20;99.90
21149;DHT22;10732;51.472;6.466;2023-04-03T12:24:26;9.30;99.90
21149;DHT22;10732;51.472;6.466;2023-04-03T12:27:17;9.50;99.90
21149;DHT22;10732;51.472;6.466;2023-04-03T12:35:37;9.50;99.90
21149;DHT22;10732;51.472;6.466;2023-04-03T12:38:32;9.40;99.90
21149;DHT22;10732;51.472;6.466;2023-04-03T12:43:37;9.40;99.90
21149;DHT22;10732;51.472;6.466;2023-04-03T12:51:21;9.20;99.90
21149;DHT22;10732;51.472;6.466;2023-04-03T12:53:47;9.30;99.90
21149;DHT22;10732;51.472;6.466;2023-04-03T12:56:28;9.40;99.90
21149;DHT22;10732;51.472;6.466;2023-04-03T12:59:12;9.50;99.90
21149;DHT22;10732;51.472;6.466;2023-04-03T13:01:38;9.60;99.90
21149;DHT22;10732;51.472;6.466;2023-04-03T13:04:03;9.50;99.90
21149;DHT22;10732;51.472;6.466;2023-04-03T13:06:41;9.20;99.90
21149;DHT22;10732;51.472;6.466;2023-04-03T13:11:44;9.10;99.90
21149;DHT22;10732;51.472;6.466;2023-04-03T13:14:22;9.30;99.90
21149;DHT22;10732;51.472;6.466;2023-04-03T13:17:11;9.20;99.90
21149;DHT22;10732;51.472;6.466;2023-04-03T13:19:38;9.10;99.90
21149;DHT22;10732;51.472;6.466;2023-04-03T13:22:16;9.30;99.90
21149;DHT22;10732;51.472;6.466;2023-04-03T13:24:51;9.40;99.90
21149;DHT22;10732;51.472;6.466;2023-04-03T13:27:17;9.50;99.90
21149;DHT22;10732;51.472;6.466;2023-04-03T13:29:43;9.80;99.90
21149;DHT22;10732;51.472;6.466;2023-04-03T13:32:20;9.40;99.90
21149;DHT22;10732;51.472;6.466;2023-04-03T13:34:47;9.30;99.90
21149;DHT22;10732;51.472;6.466;2023-04-03T13:37:29;9.40;99.90
21149;DHT22;10732;51.472;6.466;2023-04-03T13:42:26;9.60;99.90
21149;DHT22;10732;51.472;6.466;2023-04-03T13:45:27;9.40;99.90
21149;DHT22;10732;51.472;6.466;2023-04-03T13:53:16;9.40;99.90
21149;DHT22;10732;51.472;6.466;2023-04-03T13:55:57;9.50;99.90
21149;DHT22;10732;51.472;6.466;2023-04-03T13:58:25;9.50;99.90
21149;DHT22;10732;51.472;6.466;2023-04-03T14:00:53;9.60;99.90
21149;DHT22;10732;51.472;6.466;2023-04-03T14:03:30;9.50;99.90
21149;DHT22;10732;51.472;6.466;2023-04-03T14:05:56;9.70;99.90
21149;DHT22;10732;51.472;6.466;2023-04-03T14:08:22;9.70;99.90
21149;DHT22;10732;51.472;6.466;2023-04-03T14:10:48;9.70;99.90
21149;DHT22;10732;51.472;6.466;2023-04-03T14:13:16;9.40;99.90
21149;DHT22;10732;51.472;6.466;2023-04-03T14:15:42;9.30;99.90
21149;DHT22;10732;51.472;6.466;2023-04-03T14:18:17;9.40;99.90
21149;DHT22;10732;51.472;6.466;2023-04-03T14:20:44;9.40;99.90
21149;DHT22;10732;51.472;6.466;2023-04-03T14:23:10;9.30;99.90
21149;DHT22;10732;51.472;6.466;2023-04-03T14:25:36;9.30;99.90
21149;DHT22;10732;51.472;6.466;2023-04-03T14:28:21;9.40;99.90
21149;DHT22;10732;51.472;6.466;2023-04-03T14:30:48;9.40;99.90
21149;DHT22;10732;51.472;6.466;2023-04-03T14:33:17;9.30;99.90
21149;DHT22;10732;51.472;6.466;2023-04-03T14:35:44;9.40;99.90
21149;DHT22;10732;51.472;6.466;2023-04-03T14:40:46;9.20;99.90
21149;DHT22;10732;51.472;6.466;2023-04-03T14:43:12;9.20;99.90
21149;DHT22;10732;51.472;6.466;2023-04-03T14:45:39;9.20;99.90
21149;DHT22;10732;51.472;6.466;2023-04-03T14:48:04;9.20;99.90
21149;DHT22;10732;51.472;6.466;2023-04-03T14:50:32;9.20;99.90
21149;DHT22;10732;51.472;6.466;2023-04-03T14:52:58;9.20;99.90
21149;DHT22;10732;51.472;6.466;2023-04-03T14:55:25;9.20;99.90
21149;DHT22;10732;51.472;6.466;2023-04-03T14:57:51;9.30;99.90
21149;DHT22;10732;51.472;6.466;2023-04-03T15:00:19;9.20;99.90
21149;DHT22;10732;51.472;6.466;2023-04-03T15:02:47;9.20;99.90
21149;DHT22;10732;51.472;6.466;2023-04-03T15:05:13;9.20;99.90
21149;DHT22;10732;51.472;6.466;2023-04-03T15:07:52;9.30;99.90
21149;DHT22;10732;51.472;6.466;2023-04-03T15:10:26;9.40;99.90
21149;DHT22;10732;51.472;6.466;2023-04-03T15:12:52;9.30;99.90
21149;DHT22;10732;51.472;6.466;2023-04-03T15:15:19;9.00;99.90
21149;DHT22;10732;51.472;6.466;2023-04-03T15:17:47;9.10;99.90
21149;DHT22;10732;51.472;6.466;2023-04-03T15:20:19;9.00;99.90
21149;DHT22;10732;51.472;6.466;2023-04-03T15:22:45;9.10;99.90
21149;DHT22;10732;51.472;6.466;2023-04-03T15:25:11;9.00;99.90
21149;DHT22;10732;51.472;6.466;2023-04-03T15:27:37;9.00;99.90
21149;DHT22;10732;51.472;6.466;2023-04-03T15:30:08;9.00;99.90
21149;DHT22;10732;51.472;6.466;2023-04-03T15:32:34;8.90;99.90
21149;DHT22;10732;51.472;6.466;2023-04-03T15:35:00;8.80;99.90
21149;DHT22;10732;51.472;6.466;2023-04-03T15:37:27;8.80;99.90
21149;DHT22;10732;51.472;6.466;2023-04-03T15:39:53;8.80;99.90
21149;DHT22;10732;51.472;6.466;2023-04-03T15:42:18;8.70;99.90
21149;DHT22;10732;51.472;6.466;2023-04-03T15:44:44;8.70;99.90
21149;DHT22;10732;51.472;6.466;2023-04-03T15:47:09;8.60;99.90
21149;DHT22;10732;51.472;6.466;2023-04-03T15:49:36;8.70;99.90
21149;DHT22;10732;51.472;6.466;2023-04-03T15:52:02;8.80;99.90
21149;DHT22;10732;51.472;6.466;2023-04-03T15:54:27;8.80;99.90
21149;DHT22;10732;51.472;6.466;2023-04-03T15:56:55;8.70;99.90
21149;DHT22;10732;51.472;6.466;2023-04-03T15:59:20;8.60;99.90
21149;DHT22;10732;51.472;6.466;2023-04-03T16:01:46;8.60;99.90
21149;DHT22;10732;51.472;6.466;2023-04-03T16:04:12;8.60;99.90
21149;DHT22;10732;51.472;6.466;2023-04-03T16:06:38;8.70;99.90
21149;DHT22;10732;51.472;6.466;2023-04-03T16:09:04;8.60;99.90
21149;DHT22;10732;51.472;6.466;2023-04-03T16:11:30;8.60;99.90
21149;DHT22;10732;51.472;6.466;2023-04-03T16:13:56;8.60;99.90
21149;DHT22;10732;51.472;6.466;2023-04-03T16:16:23;8.60;99.90
21149;DHT22;10732;51.472;6.466;2023-04-03T16:18:50;8.60;99.90
21149;DHT22;10732;51.472;6.466;2023-04-03T16:21:16;8.40;99.90
21149;DHT22;10732;51.472;6.466;2023-04-03T16:23:43;8.40;99.90
21149;DHT22;10732;51.472;6.466;2023-04-03T16:26:09;8.40;99.90
21149;DHT22;10732;51.472;6.466;2023-04-03T16:28:35;8.40;99.90
21149;DHT22;10732;51.472;6.466;2023-04-03T16:31:01;8.30;99.90
21149;DHT22;10732;51.472;6.466;2023-04-03T16:33:27;8.20;99.90
21149;DHT22;10732;51.472;6.466;2023-04-03T16:35:53;8.30;99.90
21149;DHT22;10732;51.472;6.466;2023-04-03T16:38:19;8.30;99.90
21149;DHT22;10732;51.472;6.466;2023-04-03T16:40:45;8.20;99.90
21149;DHT22;10732;51.472;6.466;2023-04-03T16:43:11;8.20;99.90
21149;DHT22;10732;51.472;6.466;2023-04-03T16:45:37;8.10;99.90
21149;DHT22;10732;51.472;6.466;2023-04-03T16:48:03;8.10;99.90
21149;DHT22;10732;51.472;6.466;2023-04-03T16:50:29;8.00;99.90
21149;DHT22;10732;51.472;6.466;2023-04-03T16:52:54;8.00;99.90
21149;DHT22;10732;51.472;6.466;2023-04-03T16:55:21;7.90;99.90
21149;DHT22;10732;51.472;6.466;2023-04-03T16:57:46;7.90;99.90
21149;DHT22;10732;51.472;6.466;2023-04-03T17:00:13;7.90;99.90
21149;DHT22;10732;51.472;6.466;2023-04-03T17:02:39;7.90;99.90
21149;DHT22;10732;51.472;6.466;2023-04-03T17:05:06;7.80;99.90
21149;DHT22;10732;51.472;6.466;2023-04-03T17:07:32;7.80;99.90
21149;DHT22;10732;51.472;6.466;2023-04-03T17:09:57;7.70;99.90
21149;DHT22;10732;51.472;6.466;2023-04-03T17:12:23;7.70;99.90
21149;DHT22;10732;51.472;6.466;2023-04-03T17:14:49;7.60;99.90
21149;DHT22;10732;51.472;6.466;2023-04-03T17:17:18;7.50;99.90
21149;DHT22;10732;51.472;6.466;2023-04-03T17:19:45;7.50;99.90
21149;DHT22;10732;51.472;6.466;2023-04-03T17:22:11;7.40;99.90
21149;DHT22;10732;51.472;6.466;2023-04-03T17:24:37;7.40;99.90
21149;DHT22;10732;51.472;6.466;2023-04-03T17:27:03;7.30;99.90
21149;DHT22;10732;51.472;6.466;2023-04-03T17:29:29;7.30;99.90
21149;DHT22;10732;51.472;6.466;2023-04-03T17:31:54;7.20;99.90
21149;DHT22;10732;51.472;6.466;2023-04-03T17:34:20;7.20;99.90
21149;DHT22;10732;51.472;6.466;2023-04-03T17:36:46;7.10;99.90
21149;DHT22;10732;51.472;6.466;2023-04-03T17:39:12;7.00;99.90